Time;durP1;ratioP1;P1;durP2;ratioP2;P2;SDS_P1;SDS_P2;PMS_P1;PMS_P2;Temp;Humidity;BMP_temperature;BMP_pressure;BME280_temperature;BME280_humidity;BME280_pressure;Samples;Min_cycle;Max_cycle;Signal;HPM_P1;HPM_P2
2023/03/21 06:00:32;;;;;;;3.60;3.27;;;10.40;97.20;;;;;;1700308;29;20473;-66
2023/03/21 06:01:23;;;;;;;4.07;3.28;;;10.40;97.20;;;;;;1700325;29;20207;-65
2023/03/21 06:02:15;;;;;;;4.03;3.63;;;10.40;97.20;;;;;;1700269;29;20653;-66
2023/03/21 06:03:05;;;;;;;3.60;3.30;;;10.40;97.20;;;;;;1699575;29;20214;-65
2023/03/21 06:03:57;;;;;;;5.90;3.30;;;10.40;97.20;;;;;;1700111;29;20195;-66
2023/03/21 06:04:48;;;;;;;4.22;3.80;;;10.30;97.20;;;;;;1700235;29;20207;-66
2023/03/21 06:05:39;;;;;;;4.13;3.73;;;10.30;97.20;;;;;;1699928;29;20241;-67
2023/03/21 06:06:30;;;;;;;3.72;3.30;;;10.30;97.20;;;;;;1700243;29;20227;-66
2023/03/21 06:07:22;;;;;;;3.90;3.43;;;10.30;97.20;;;;;;1700331;29;20210;-66
2023/03/21 06:08:13;;;;;;;4.10;3.80;;;10.30;97.20;;;;;;1700195;29;20207;-67
2023/03/21 06:09:05;;;;;;;4.33;3.70;;;10.20;97.20;;;;;;1700053;29;20313;-66
2023/03/21 06:09:56;;;;;;;5.50;3.30;;;10.20;97.20;;;;;;1700225;29;20270;-66
2023/03/21 06:10:47;;;;;;;4.97;3.60;;;10.20;97.20;;;;;;1700277;29;20227;-66
2023/03/21 06:11:42;;;;;;;3.42;3.13;;;10.20;97.20;;;;;;1700212;29;20214;-66
2023/03/21 06:12:34;;;;;;;4.65;3.40;;;10.20;97.20;;;;;;1700216;29;20209;-67
2023/03/21 06:13:25;;;;;;;3.70;3.35;;;10.20;97.20;;;;;;1699659;29;20203;-66
2023/03/21 06:14:17;;;;;;;4.30;3.20;;;10.20;97.20;;;;;;1700127;29;20245;-66
2023/03/21 06:15:08;;;;;;;3.78;3.45;;;10.20;97.20;;;;;;1700049;29;20300;-66
2023/03/21 06:16:02;;;;;;;3.83;3.53;;;10.20;97.20;;;;;;1699979;29;20206;-67
2023/03/21 06:16:52;;;;;;;4.53;3.55;;;10.20;97.20;;;;;;1700232;29;20203;-66
2023/03/21 06:17:44;;;;;;;3.40;3.10;;;10.10;97.20;;;;;;1700194;29;20211;-66
2023/03/21 06:18:35;;;;;;;3.20;2.97;;;10.10;97.20;;;;;;1700251;29;20211;-65
2023/03/21 06:19:26;;;;;;;3.83;3.30;;;10.10;97.20;;;;;;1700302;29;20199;-66
2023/03/21 06:20:17;;;;;;;3.80;3.50;;;10.10;97.20;;;;;;1700027;29;20211;-66
2023/03/21 06:21:09;;;;;;;4.03;3.30;;;10.10;97.20;;;;;;1700156;29;20199;-66
2023/03/21 06:22:00;;;;;;;3.85;3.50;;;10.10;97.20;;;;;;1701227;29;20894;-65
2023/03/21 06:22:52;;;;;;;5.03;3.10;;;10.10;97.20;;;;;;1701234;29;20740;-65
2023/03/21 06:23:42;;;;;;;4.15;3.75;;;10.10;97.20;;;;;;1701123;29;20211;-66
2023/03/21 06:24:34;;;;;;;5.17;4.00;;;10.10;97.20;;;;;;1701533;29;20206;-66
2023/03/21 06:25:25;;;;;;;3.33;3.10;;;10.10;97.20;;;;;;1701320;29;20203;-65
2023/03/21 06:26:18;;;;;;;3.80;3.40;;;10.10;97.20;;;;;;1701328;29;20203;-65
2023/03/21 06:27:09;;;;;;;3.78;3.47;;;10.10;97.20;;;;;;1701432;29;20207;-66
2023/03/21 06:28:01;;;;;;;3.77;3.47;;;10.10;97.20;;;;;;1701471;29;20203;-66
2023/03/21 06:28:52;;;;;;;3.92;3.20;;;10.20;97.20;;;;;;1700843;29;20203;-67
2023/03/21 06:29:44;;;;;;;4.18;3.80;;;10.20;97.20;;;;;;1701515;29;20226;-66
2023/03/21 06:30:35;;;;;;;3.88;3.55;;;10.20;97.20;;;;;;1701003;29;20226;-66
2023/03/21 06:31:28;;;;;;;6.90;3.43;;;10.20;97.20;;;;;;1701222;29;20250;-66
2023/03/21 06:32:19;;;;;;;3.70;3.40;;;10.20;97.20;;;;;;1701400;29;20229;-65
2023/03/21 06:33:11;;;;;;;5.25;4.13;;;10.20;97.20;;;;;;1700473;29;20238;-67
2023/03/21 06:34:02;;;;;;;3.80;3.50;;;10.20;97.20;;;;;;1701127;29;20207;-67
2023/03/21 06:34:54;;;;;;;4.18;3.50;;;10.20;97.20;;;;;;1701116;29;20287;-66
2023/03/21 06:35:50;;;;;;;3.60;3.30;;;10.20;97.20;;;;;;1700920;29;20214;-66
2023/03/21 06:36:43;;;;;;;3.70;3.40;;;10.20;97.20;;;;;;1701259;29;20214;-66
2023/03/21 06:37:34;;;;;;;4.38;3.97;;;10.20;97.20;;;;;;1701176;29;20210;-67
2023/03/21 06:38:26;;;;;;;4.57;3.80;;;10.20;97.20;;;;;;1701882;29;20214;-66
2023/03/21 06:39:17;;;;;;;4.68;4.20;;;10.20;97.20;;;;;;1701878;29;20574;-66
2023/03/21 06:40:10;;;;;;;4.13;3.73;;;10.20;97.20;;;;;;1701511;29;20701;-66
2023/03/21 06:41:03;;;;;;;3.92;3.63;;;10.20;97.20;;;;;;1700959;29;20473;-68
2023/03/21 06:41:55;;;;;;;4.43;4.03;;;10.20;97.20;;;;;;1700595;29;20195;-67
2023/03/21 06:42:46;;;;;;;3.50;3.20;;;10.30;97.20;;;;;;1701154;29;20603;-64
2023/03/21 06:43:37;;;;;;;3.90;3.53;;;10.30;97.20;;;;;;1701218;29;20581;-66
2023/03/21 06:44:28;;;;;;;3.50;3.20;;;10.30;97.20;;;;;;1701363;29;20442;-66
2023/03/21 06:45:20;;;;;;;4.50;3.73;;;10.30;97.20;;;;;;1700996;29;20203;-65
2023/03/21 06:46:11;;;;;;;4.03;3.72;;;10.30;97.20;;;;;;1701165;29;20199;-65
2023/03/21 06:47:04;;;;;;;5.70;4.10;;;10.30;97.20;;;;;;1701240;29;20207;-66
2023/03/21 06:47:54;;;;;;;3.75;3.35;;;10.30;97.20;;;;;;1701304;29;20210;-66
2023/03/21 06:48:46;;;;;;;4.47;4.07;;;10.40;97.20;;;;;;1701297;29;20215;-66
2023/03/21 06:49:37;;;;;;;3.95;3.65;;;10.40;97.20;;;;;;1701340;29;20211;-66
2023/03/21 06:50:29;;;;;;;4.13;3.83;;;10.40;97.20;;;;;;1700941;29;20196;-66
2023/03/21 06:51:19;;;;;;;5.00;3.60;;;10.40;97.20;;;;;;1701315;29;20195;-65
2023/03/21 06:52:11;;;;;;;4.27;3.87;;;10.40;97.20;;;;;;1700625;29;20195;-68
2023/03/21 06:53:02;;;;;;;4.90;3.85;;;10.50;97.20;;;;;;1701264;29;20218;-66
2023/03/21 06:53:54;;;;;;;3.55;3.20;;;10.50;97.20;;;;;;1701238;29;20262;-66
2023/03/21 06:54:45;;;;;;;3.63;3.33;;;10.50;97.20;;;;;;1701200;29;20211;-67
2023/03/21 06:55:36;;;;;;;4.27;3.87;;;10.60;97.20;;;;;;1700692;29;20191;-66
2023/03/21 06:56:27;;;;;;;3.70;3.22;;;10.60;97.20;;;;;;1701372;29;20218;-65
2023/03/21 06:57:20;;;;;;;3.97;3.67;;;10.60;97.20;;;;;;1701202;29;20202;-65
2023/03/21 06:58:11;;;;;;;8.50;4.05;;;10.70;97.20;;;;;;1701019;29;20322;-66
2023/03/21 06:59:03;;;;;;;5.10;4.10;;;10.70;97.20;;;;;;1701084;29;20266;-66
2023/03/21 06:59:54;;;;;;;4.82;4.32;;;10.70;97.20;;;;;;1701027;29;20203;-66
2023/03/21 07:00:45;;;;;;;3.80;3.33;;;10.80;97.20;;;;;;1700991;29;20227;-68
2023/03/21 07:01:37;;;;;;;5.07;3.80;;;10.80;97.20;;;;;;1701087;29;20218;-66
2023/03/21 07:02:30;;;;;;;4.40;4.05;;;10.80;97.20;;;;;;1700930;29;20203;-67
2023/03/21 07:03:22;;;;;;;6.43;3.50;;;10.90;97.20;;;;;;1701251;29;20226;-67
2023/03/21 07:04:14;;;;;;;4.65;3.70;;;10.90;97.20;;;;;;1701640;29;20199;-67
2023/03/21 07:05:05;;;;;;;5.07;4.57;;;11.00;97.20;;;;;;1701691;29;20218;-66
2023/03/21 07:05:57;;;;;;;4.32;3.92;;;11.00;97.20;;;;;;1701309;29;20258;-65
2023/03/21 07:06:48;;;;;;;6.10;3.65;;;11.10;97.20;;;;;;1701267;29;20222;-67
2023/03/21 07:07:40;;;;;;;4.40;3.67;;;11.10;97.20;;;;;;1700917;29;20662;-67
2023/03/21 07:08:31;;;;;;;4.30;3.90;;;11.10;97.20;;;;;;1701436;29;20462;-66
2023/03/21 07:09:26;;;;;;;3.90;3.60;;;11.20;97.20;;;;;;1701354;29;20233;-66
2023/03/21 07:10:17;;;;;;;4.47;3.95;;;11.20;97.20;;;;;;1699326;29;20669;-64
2023/03/21 07:11:10;;;;;;;4.32;3.85;;;11.30;97.20;;;;;;1700586;29;20684;-65
2023/03/21 07:12:00;;;;;;;4.95;4.55;;;11.30;97.20;;;;;;1701202;29;20203;-65
2023/03/21 07:12:52;;;;;;;4.00;3.70;;;11.40;97.20;;;;;;1701098;29;20291;-65
2023/03/21 07:13:43;;;;;;;4.32;3.92;;;11.40;97.20;;;;;;1701250;29;20215;-70
2023/03/21 07:14:35;;;;;;;6.10;4.00;;;11.50;97.20;;;;;;1700538;29;20202;-65
2023/03/21 07:15:25;;;;;;;3.75;3.45;;;11.50;97.20;;;;;;1701043;29;20447;-65
2023/03/21 07:16:20;;;;;;;4.40;4.00;;;11.60;97.20;;;;;;1701244;29;20709;-66
2023/03/21 07:17:11;;;;;;;4.35;3.95;;;11.60;97.20;;;;;;1700885;29;20451;-65
2023/03/21 07:18:04;;;;;;;4.07;3.67;;;11.70;97.20;;;;;;1701154;29;20203;-65
2023/03/21 07:18:55;;;;;;;6.10;5.05;;;11.80;97.20;;;;;;1701192;29;20211;-69
2023/03/21 07:19:46;;;;;;;4.33;3.70;;;11.80;97.20;;;;;;1701265;29;20204;-66
2023/03/21 07:20:37;;;;;;;4.85;4.35;;;11.80;97.20;;;;;;1701074;29;20489;-68
2023/03/21 07:21:29;;;;;;;4.53;4.10;;;11.90;97.20;;;;;;1701108;29;20203;-69
2023/03/21 07:22:20;;;;;;;3.75;3.40;;;11.90;97.20;;;;;;1701060;29;20206;-67
2023/03/21 07:23:11;;;;;;;5.17;4.00;;;12.00;97.20;;;;;;1701042;29;20202;-66
2023/03/21 07:24:02;;;;;;;4.25;3.85;;;12.00;97.20;;;;;;1700802;29;20214;-67
2023/03/21 07:24:54;;;;;;;3.80;3.50;;;12.10;97.20;;;;;;1700875;29;20206;-66
2023/03/21 07:25:47;;;;;;;5.10;3.80;;;12.20;97.20;;;;;;1700600;29;20470;-66
2023/03/21 07:26:39;;;;;;;3.90;3.60;;;12.20;97.20;;;;;;1700979;29;20215;-67
2023/03/21 07:27:30;;;;;;;3.13;2.88;;;12.20;97.20;;;;;;1701021;29;20203;-67
2023/03/21 07:28:23;;;;;;;5.23;4.13;;;12.30;97.20;;;;;;1701061;29;20668;-66
2023/03/21 07:29:14;;;;;;;4.28;3.90;;;12.30;97.20;;;;;;1700421;29;20211;-70
2023/03/21 07:30:07;;;;;;;4.40;3.60;;;12.30;97.20;;;;;;1701046;29;20294;-70
2023/03/21 07:31:00;;;;;;;4.43;3.80;;;12.40;97.20;;;;;;1701094;29;20251;-67
2023/03/21 07:31:51;;;;;;;4.40;4.00;;;12.50;97.20;;;;;;1700831;29;20725;-67
2023/03/21 07:32:44;;;;;;;5.20;3.70;;;12.50;97.20;;;;;;1700963;29;20218;-67
2023/03/21 07:33:37;;;;;;;4.13;3.70;;;12.60;97.20;;;;;;1700224;29;20561;-67
2023/03/21 07:34:31;;;;;;;3.50;3.30;;;12.70;97.20;;;;;;1700311;29;20215;-67
2023/03/21 07:35:23;;;;;;;4.20;3.80;;;12.70;97.20;;;;;;1700754;29;20207;-67
2023/03/21 07:36:15;;;;;;;3.72;3.42;;;12.80;97.20;;;;;;1700575;29;20203;-67
2023/03/21 07:37:06;;;;;;;4.55;3.60;;;12.80;97.20;;;;;;1700063;29;20241;-66
2023/03/21 07:37:57;;;;;;;3.95;3.40;;;12.80;97.20;;;;;;1701243;29;20207;-66
2023/03/21 07:38:49;;;;;;;3.53;3.23;;;12.90;97.20;;;;;;1700502;29;20285;-67
2023/03/21 07:39:41;;;;;;;4.53;3.60;;;12.90;97.20;;;;;;1700816;29;20231;-67
2023/03/21 07:40:33;;;;;;;4.45;3.80;;;12.90;97.20;;;;;;1701375;29;20723;-67
2023/03/21 07:41:24;;;;;;;3.80;3.50;;;13.00;97.20;;;;;;1701371;29;20203;-67
2023/03/21 07:42:16;;;;;;;3.97;3.67;;;13.00;97.20;;;;;;1701554;29;20195;-67
2023/03/21 07:43:06;;;;;;;3.70;3.40;;;13.00;97.20;;;;;;1701408;29;20296;-67
2023/03/21 07:43:58;;;;;;;3.90;3.50;;;13.10;97.20;;;;;;1701397;29;20215;-66
2023/03/21 07:44:49;;;;;;;5.35;4.38;;;13.10;97.20;;;;;;1700718;29;20673;-66
2023/03/21 07:45:41;;;;;;;3.75;3.35;;;13.10;97.20;;;;;;1706544;29;20274;-67
2023/03/21 07:46:32;;;;;;;4.75;3.50;;;13.10;97.20;;;;;;1707794;28;20264;-67
2023/03/21 07:47:24;;;;;;;4.17;3.80;;;13.10;97.20;;;;;;1703193;28;20250;-66
2023/03/21 07:48:17;;;;;;;3.50;3.20;;;13.10;97.20;;;;;;1701372;29;20684;-67
2023/03/21 07:49:09;;;;;;;3.63;3.30;;;13.10;97.20;;;;;;1701400;29;21330;-67
2023/03/21 07:50:03;;;;;;;4.85;3.50;;;13.10;97.20;;;;;;1701316;29;20267;-67
2023/03/21 07:50:54;;;;;;;4.10;3.80;;;13.10;97.20;;;;;;1701189;29;20231;-66
2023/03/21 07:51:46;;;;;;;3.77;3.47;;;13.10;97.20;;;;;;1701381;29;20298;-66
2023/03/21 07:52:36;;;;;;;3.90;3.60;;;13.10;97.20;;;;;;1701289;29;20859;-66
2023/03/21 07:53:28;;;;;;;3.60;3.30;;;13.20;97.20;;;;;;1701428;29;20203;-67
2023/03/21 07:54:21;;;;;;;3.78;3.42;;;13.20;97.20;;;;;;1701311;29;20823;-67
2023/03/21 07:55:13;;;;;;;3.75;3.45;;;13.20;97.20;;;;;;1701006;29;20581;-66
2023/03/21 07:56:04;;;;;;;4.03;3.45;;;13.30;97.20;;;;;;1701312;29;20203;-67
2023/03/21 07:56:56;;;;;;;3.10;2.80;;;13.30;97.20;;;;;;1701226;29;20253;-66
2023/03/21 07:57:50;;;;;;;3.83;3.50;;;13.40;97.20;;;;;;1701323;29;20218;-66
2023/03/21 07:58:42;;;;;;;3.72;3.42;;;13.40;97.20;;;;;;1701361;29;20342;-66
2023/03/21 07:59:32;;;;;;;3.50;3.20;;;13.50;97.20;;;;;;1701261;29;20206;-67
2023/03/21 08:00:25;;;;;;;4.63;3.17;;;13.60;97.20;;;;;;1701289;29;20653;-67
2023/03/21 08:01:15;;;;;;;3.35;3.08;;;13.70;97.20;;;;;;1701235;29;20207;-67
2023/03/21 08:02:07;;;;;;;5.57;4.23;;;13.70;97.20;;;;;;1700962;29;20199;-66
2023/03/21 08:02:58;;;;;;;6.40;3.50;;;13.80;97.20;;;;;;1701213;29;20207;-67
2023/03/21 08:03:52;;;;;;;4.22;3.80;;;13.90;97.20;;;;;;1701187;29;20211;-67
2023/03/21 08:04:44;;;;;;;3.38;3.05;;;14.00;97.20;;;;;;1701355;29;20204;-67
2023/03/21 08:05:37;;;;;;;3.80;3.40;;;14.10;97.20;;;;;;1700966;29;20203;-67
2023/03/21 08:06:31;;;;;;;3.53;3.22;;;14.20;97.20;;;;;;1701044;29;20200;-66
2023/03/21 08:07:22;;;;;;;3.33;3.03;;;14.30;97.20;;;;;;1701296;29;20234;-66
2023/03/21 08:08:14;;;;;;;3.90;3.15;;;14.40;97.20;;;;;;1701149;29;20211;-67
2023/03/21 08:09:05;;;;;;;3.30;3.00;;;14.50;97.20;;;;;;1701247;29;20218;-67
2023/03/21 08:09:57;;;;;;;5.40;2.80;;;14.60;97.20;;;;;;1701153;29;20231;-66
2023/03/21 08:10:47;;;;;;;3.92;3.53;;;14.60;97.20;;;;;;1701243;29;20972;-66
2023/03/21 08:11:40;;;;;;;3.60;3.30;;;14.70;97.20;;;;;;1701372;29;20562;-66
2023/03/21 08:12:31;;;;;;;3.20;2.90;;;14.70;97.20;;;;;;1701262;29;20207;-66
2023/03/21 08:13:23;;;;;;;2.80;2.50;;;14.70;97.20;;;;;;1701223;29;20207;-66
2023/03/21 08:14:14;;;;;;;4.57;3.30;;;14.80;97.20;;;;;;1701222;29;20231;-66
2023/03/21 08:15:07;;;;;;;3.43;3.13;;;14.80;97.20;;;;;;1701339;29;20692;-66
2023/03/21 08:15:57;;;;;;;3.38;3.08;;;14.80;97.20;;;;;;1700855;29;20203;-67
2023/03/21 08:16:49;;;;;;;3.13;2.87;;;14.90;97.20;;;;;;1701159;29;20202;-67
2023/03/21 08:17:40;;;;;;;3.75;3.40;;;14.90;97.20;;;;;;1701265;29;20211;-67
2023/03/21 08:18:32;;;;;;;3.53;3.13;;;15.00;97.20;;;;;;1700916;29;20295;-67
2023/03/21 08:19:23;;;;;;;4.57;2.88;;;15.10;97.20;;;;;;1701207;29;20207;-65
2023/03/21 08:20:20;;;;;;;3.23;2.80;;;15.10;97.20;;;;;;1701090;29;20209;-67
2023/03/21 08:21:10;;;;;;;3.42;2.63;;;15.20;97.20;;;;;;1701197;29;20207;-66
2023/03/21 08:22:04;;;;;;;4.00;2.70;;;15.20;97.20;;;;;;1701272;29;20298;-68
2023/03/21 08:22:55;;;;;;;3.40;3.00;;;15.30;97.20;;;;;;1701165;29;20253;-66
2023/03/21 08:23:47;;;;;;;2.80;2.60;;;15.30;97.20;;;;;;1701222;29;20219;-67
2023/03/21 08:24:37;;;;;;;2.75;2.47;;;15.30;97.20;;;;;;1701083;29;20450;-67
2023/03/21 08:25:30;;;;;;;3.30;2.70;;;15.40;97.20;;;;;;1700880;29;20205;-66
2023/03/21 08:26:24;;;;;;;4.20;2.85;;;15.40;97.20;;;;;;1701042;29;20199;-67
2023/03/21 08:27:16;;;;;;;3.40;3.08;;;15.50;97.20;;;;;;1700999;29;20203;-66
2023/03/21 08:28:06;;;;;;;2.97;2.70;;;15.60;97.20;;;;;;1701057;29;20591;-66
2023/03/21 08:28:58;;;;;;;3.00;2.80;;;15.60;97.20;;;;;;1701040;29;20199;-66
2023/03/21 08:29:49;;;;;;;3.00;2.70;;;15.70;97.20;;;;;;1701066;29;20689;-66
2023/03/21 08:30:40;;;;;;;3.87;3.00;;;15.80;97.20;;;;;;1700921;29;20702;-66
2023/03/21 08:31:31;;;;;;;3.58;3.00;;;15.90;97.20;;;;;;1701026;29;20223;-66
2023/03/21 08:32:28;;;;;;;4.07;3.67;;;16.00;97.20;;;;;;1701145;29;20203;-67
2023/03/21 08:33:19;;;;;;;6.65;2.60;;;16.00;97.20;;;;;;1701140;29;20203;-66
2023/03/21 08:34:12;;;;;;;4.60;3.20;;;16.10;97.20;;;;;;1701205;29;20577;-67
2023/03/21 08:35:04;;;;;;;3.40;2.50;;;16.10;97.20;;;;;;1700677;29;20254;-66
2023/03/21 08:35:59;;;;;;;2.75;2.55;;;16.00;97.20;;;;;;1700840;29;20578;-66
2023/03/21 08:36:50;;;;;;;3.50;2.60;;;16.00;97.20;;;;;;1700939;29;20210;-66
2023/03/21 08:37:42;;;;;;;3.07;2.47;;;16.00;97.20;;;;;;1700747;29;20198;-66
2023/03/21 08:38:33;;;;;;;3.03;2.72;;;16.00;97.20;;;;;;1701088;29;20930;-66
2023/03/21 08:39:26;;;;;;;2.73;2.53;;;16.10;97.20;;;;;;1701097;29;20673;-66
2023/03/21 08:40:19;;;;;;;2.50;2.30;;;16.20;97.20;;;;;;1700913;29;20199;-67
2023/03/21 08:41:11;;;;;;;3.60;2.85;;;16.30;97.20;;;;;;1701037;29;20617;-67
2023/03/21 08:42:02;;;;;;;3.58;3.28;;;16.30;97.20;;;;;;1701041;29;20210;-66
2023/03/21 08:42:54;;;;;;;2.90;2.67;;;16.40;97.20;;;;;;1700909;29;20234;-66
2023/03/21 08:43:45;;;;;;;4.55;2.75;;;16.50;97.20;;;;;;1701077;29;20211;-67
2023/03/21 08:44:37;;;;;;;3.47;2.60;;;16.60;97.20;;;;;;1701009;29;20202;-66
2023/03/21 08:45:28;;;;;;;3.25;2.65;;;16.60;97.20;;;;;;1700697;29;20206;-67
2023/03/21 08:46:20;;;;;;;2.80;2.60;;;16.70;97.20;;;;;;1701091;29;20294;-66
2023/03/21 08:47:11;;;;;;;2.70;2.50;;;16.80;97.20;;;;;;1700873;29;20677;-66
2023/03/21 08:48:03;;;;;;;3.37;3.00;;;16.90;97.20;;;;;;1701068;29;20674;-66
2023/03/21 08:48:53;;;;;;;3.83;2.60;;;17.00;97.20;;;;;;1700913;29;20489;-67
2023/03/21 08:49:45;;;;;;;3.93;2.53;;;17.00;97.20;;;;;;1700331;29;20205;-67
2023/03/21 08:50:36;;;;;;;4.28;2.60;;;17.20;97.20;;;;;;1700896;29;20259;-67
2023/03/21 08:51:30;;;;;;;3.03;2.73;;;17.30;97.20;;;;;;1700856;29;20653;-67
2023/03/21 08:52:21;;;;;;;2.28;2.08;;;17.40;97.20;;;;;;1701009;29;20222;-67
2023/03/21 08:53:13;;;;;;;2.23;2.03;;;17.50;97.20;;;;;;1700898;29;20322;-67
2023/03/21 08:54:03;;;;;;;3.35;1.90;;;17.50;97.20;;;;;;1700937;29;20203;-67
2023/03/21 08:54:55;;;;;;;2.80;1.60;;;17.50;97.20;;;;;;1700936;29;20211;-68
2023/03/21 08:55:47;;;;;;;1.90;1.45;;;17.60;97.20;;;;;;1700737;29;20203;-67
2023/03/21 08:56:39;;;;;;;2.17;1.75;;;17.60;97.20;;;;;;1700842;29;20297;-67
2023/03/21 08:57:30;;;;;;;2.53;1.77;;;17.60;97.20;;;;;;1700904;29;20207;-66
2023/03/21 08:58:22;;;;;;;1.80;1.70;;;17.60;97.20;;;;;;1701028;29;20204;-67
2023/03/21 08:59:13;;;;;;;2.80;1.63;;;17.60;97.20;;;;;;1700895;29;20447;-67
2023/03/21 09:00:11;;;;;;;1.40;1.27;;;17.70;97.20;;;;;;1700903;29;20210;-67
2023/03/21 09:01:02;;;;;;;1.80;1.38;;;17.70;97.20;;;;;;1700971;29;20454;-67
2023/03/21 09:01:54;;;;;;;2.17;1.48;;;17.80;97.20;;;;;;1700891;29;20203;-67
2023/03/21 09:02:47;;;;;;;2.55;1.60;;;17.90;97.20;;;;;;1700967;29;20215;-67
2023/03/21 09:03:39;;;;;;;2.53;1.75;;;18.00;97.20;;;;;;1700964;29;20686;-67
2023/03/21 09:04:30;;;;;;;3.38;1.80;;;18.00;97.20;;;;;;1700896;29;20199;-67
2023/03/21 09:05:24;;;;;;;2.42;1.70;;;18.20;97.20;;;;;;1700387;29;20199;-66
2023/03/21 09:06:16;;;;;;;3.17;2.08;;;18.30;97.20;;;;;;1700723;29;20195;-67
2023/03/21 09:07:09;;;;;;;1.90;1.80;;;18.30;97.20;;;;;;1700831;29;20210;-67
2023/03/21 09:08:02;;;;;;;3.08;2.05;;;18.40;97.20;;;;;;1700939;29;20265;-67
2023/03/21 09:08:52;;;;;;;3.63;2.10;;;18.40;97.20;;;;;;1700912;29;20298;-67
2023/03/21 09:09:44;;;;;;;2.40;2.20;;;18.50;97.20;;;;;;1700977;29;20263;-67
2023/03/21 09:10:35;;;;;;;3.15;1.83;;;18.60;97.20;;;;;;1700715;29;20274;-67
2023/03/21 09:11:27;;;;;;;5.20;2.07;;;18.70;97.20;;;;;;1700877;29;20199;-66
2023/03/21 09:12:17;;;;;;;2.95;1.95;;;18.80;97.20;;;;;;1700826;29;20207;-66
2023/03/21 09:13:09;;;;;;;2.67;2.07;;;18.90;97.20;;;;;;1700781;29;20214;-66
2023/03/21 09:14:00;;;;;;;6.05;2.50;;;19.00;97.20;;;;;;1700819;29;20451;-67
2023/03/21 09:14:52;;;;;;;3.30;2.53;;;19.10;97.20;;;;;;1700854;29;20199;-67
2023/03/21 09:15:44;;;;;;;2.83;2.50;;;19.20;97.20;;;;;;1700638;29;20247;-68
2023/03/21 09:16:36;;;;;;;2.80;2.45;;;19.30;97.20;;;;;;1700695;29;20207;-66
2023/03/21 09:17:27;;;;;;;2.55;2.35;;;19.40;97.20;;;;;;1700839;29;20214;-66
2023/03/21 09:18:21;;;;;;;3.30;2.17;;;19.40;97.20;;;;;;1700902;29;20206;-67
2023/03/21 09:19:12;;;;;;;5.72;1.95;;;19.50;97.20;;;;;;1700833;29;20451;-66
2023/03/21 09:20:10;;;;;;;4.07;1.83;;;19.60;97.20;;;;;;1700878;29;20231;-67
2023/03/21 09:21:00;;;;;;;3.33;2.40;;;19.70;97.20;;;;;;1700895;29;20207;-66
2023/03/21 09:21:54;;;;;;;2.27;1.80;;;19.80;97.20;;;;;;1700600;29;20199;-68
2023/03/21 09:22:48;;;;;;;4.05;2.03;;;19.80;97.20;;;;;;1700786;29;20644;-66
2023/03/21 09:23:40;;;;;;;1.98;1.77;;;19.90;97.20;;;;;;1700878;29;20214;-66
2023/03/21 09:24:31;;;;;;;3.28;1.75;;;20.00;97.20;;;;;;1700786;29;20207;-66
2023/03/21 09:25:23;;;;;;;2.13;1.87;;;20.10;97.20;;;;;;1700694;29;20207;-67
2023/03/21 09:26:15;;;;;;;4.35;2.05;;;20.20;97.20;;;;;;1700860;29;20657;-67
2023/03/21 09:27:06;;;;;;;2.30;1.90;;;20.30;97.20;;;;;;1700712;29;20226;-68
2023/03/21 09:27:58;;;;;;;1.83;1.67;;;20.40;97.20;;;;;;1700747;29;20254;-66
2023/03/21 09:28:50;;;;;;;2.20;2.00;;;20.50;97.20;;;;;;1700797;29;20215;-67
2023/03/21 09:29:43;;;;;;;2.00;1.90;;;20.50;97.20;;;;;;1700713;29;20206;-67
2023/03/21 09:30:36;;;;;;;3.67;1.90;;;20.50;97.20;;;;;;1700540;29;20231;-67
2023/03/21 09:31:28;;;;;;;2.40;2.00;;;20.50;97.20;;;;;;1700790;29;20294;-67
2023/03/21 09:32:19;;;;;;;2.85;1.85;;;20.50;97.20;;;;;;1700743;29;20257;-67
2023/03/21 09:33:18;;;;;;;2.30;1.92;;;20.60;97.20;;;;;;1700648;29;20286;-68
2023/03/21 09:34:08;;;;;;;3.92;2.00;;;20.60;97.20;;;;;;1700769;29;20207;-66
2023/03/21 09:35:00;;;;;;;2.20;1.83;;;20.70;97.20;;;;;;1700844;29;20203;-67
2023/03/21 09:35:51;;;;;;;2.10;1.90;;;20.80;97.20;;;;;;1700450;29;20203;-67
2023/03/21 09:36:47;;;;;;;2.77;2.20;;;20.90;97.20;;;;;;1700650;29;20298;-67
2023/03/21 09:37:41;;;;;;;2.20;2.00;;;21.00;97.20;;;;;;1700784;29;20207;-67
2023/03/21 09:38:36;;;;;;;2.13;1.70;;;21.10;97.20;;;;;;1700410;29;20241;-67
2023/03/21 09:39:27;;;;;;;2.75;2.08;;;21.20;97.20;;;;;;1700765;29;20298;-66
2023/03/21 09:40:24;;;;;;;2.60;1.83;;;21.30;97.20;;;;;;1700737;29;20199;-68
2023/03/21 09:41:32;;;;;;;1.80;1.70;;;21.40;97.20;;;;;;1700731;29;20273;-67
2023/03/21 09:42:32;;;;;;;2.20;2.00;;;21.70;97.20;;;;;;1700795;29;20200;-67
2023/03/21 09:43:36;;;;;;;1.63;1.45;;;22.10;97.20;;;;;;1700802;29;20205;-67
2023/03/21 09:44:42;;;;;;;2.40;1.73;;;22.60;97.20;;;;;;1700703;29;20658;-66
2023/03/21 09:45:41;;;;;;;2.70;1.80;;;23.40;97.20;;;;;;1700507;29;20250;-67
2023/03/21 09:46:40;;;;;;;2.10;1.90;;;24.50;97.20;;;;;;1700576;29;20214;-67
2023/03/21 09:47:48;;;;;;;1.85;1.67;;;25.50;97.20;;;;;;1700697;29;20200;-67
2023/03/21 09:48:46;;;;;;;2.00;1.73;;;26.50;97.20;;;;;;1700763;29;20557;-68
2023/03/21 09:49:43;;;;;;;2.65;2.00;;;27.50;95.70;;;;;;1700693;29;20206;-67
2023/03/21 09:50:36;;;;;;;2.03;1.88;;;28.50;94.20;;;;;;1700528;29;20227;-68
2023/03/21 09:51:33;;;;;;;2.50;1.80;;;29.30;92.10;;;;;;1700586;29;20221;-67
2023/03/21 09:52:28;;;;;;;2.00;1.80;;;29.90;90.00;;;;;;1700746;29;20203;-67
2023/03/21 09:53:25;;;;;;;4.30;1.65;;;30.60;89.00;;;;;;1700630;29;20203;-68
2023/03/21 09:54:22;;;;;;;2.88;1.85;;;31.30;87.70;;;;;;1700724;29;20695;-68
2023/03/21 09:55:18;;;;;;;2.03;1.63;;;31.90;86.20;;;;;;1700051;29;20226;-68
2023/03/21 09:56:11;;;;;;;1.90;1.60;;;32.40;84.70;;;;;;1700426;29;20673;-68
2023/03/21 09:57:13;;;;;;;1.48;1.38;;;32.80;83.90;;;;;;1700272;29;20215;-67
2023/03/21 09:58:14;;;;;;;2.58;1.73;;;33.20;83.10;;;;;;1700721;29;20381;-67
2023/03/21 09:59:09;;;;;;;1.60;1.50;;;33.50;81.50;;;;;;1700710;29;20214;-68
2023/03/21 10:00:10;;;;;;;1.70;1.60;;;33.70;80.80;;;;;;1700713;29;20214;-67
2023/03/21 10:01:09;;;;;;;3.10;1.77;;;34.10;80.10;;;;;;1700709;29;20199;-68
2023/03/21 10:02:02;;;;;;;2.13;2.03;;;34.30;79.50;;;;;;1700647;29;20211;-68
2023/03/21 10:02:58;;;;;;;2.95;2.20;;;34.30;78.40;;;;;;1700591;29;20226;-68
2023/03/21 10:03:53;;;;;;;2.28;2.03;;;34.40;78.20;;;;;;1700730;29;20259;-67
2023/03/21 10:04:45;;;;;;;1.80;1.70;;;34.50;78.20;;;;;;1700750;29;20576;-68
2023/03/21 10:05:43;;;;;;;1.60;1.50;;;34.80;78.10;;;;;;1700458;29;20219;-68
2023/03/21 10:06:38;;;;;;;1.70;1.60;;;35.10;77.50;;;;;;1700570;29;20571;-67
2023/03/21 10:07:40;;;;;;;2.40;1.52;;;35.40;77.10;;;;;;1700582;29;20204;-67
2023/03/21 10:08:35;;;;;;;1.65;1.55;;;35.60;75.90;;;;;;1700633;29;20250;-68
2023/03/21 10:09:31;;;;;;;1.73;1.63;;;35.90;75.10;;;;;;1700631;29;20242;-68
2023/03/21 10:10:26;;;;;;;1.50;1.40;;;36.20;74.90;;;;;;1700494;29;20210;-68
2023/03/21 10:11:22;;;;;;;2.92;1.85;;;36.70;74.90;;;;;;1700443;29;20226;-68
2023/03/21 10:12:19;;;;;;;2.42;2.15;;;37.20;74.70;;;;;;1697567;29;20204;-68
2023/03/21 10:13:15;;;;;;;2.15;1.60;;;37.80;73.50;;;;;;1700445;29;20208;-68
2023/03/21 10:14:11;;;;;;;2.00;1.40;;;38.20;72.50;;;;;;1700492;29;20677;-68
2023/03/21 10:15:05;;;;;;;2.20;1.55;;;38.60;71.60;;;;;;1700668;29;20211;-68
2023/03/21 10:15:57;;;;;;;1.80;1.50;;;39.00;70.80;;;;;;1700072;29;20226;-68
2023/03/21 10:16:52;;;;;;;2.72;1.40;;;39.30;70.50;;;;;;1700567;29;20236;-67
2023/03/21 10:17:47;;;;;;;1.70;1.43;;;39.60;70.50;;;;;;1700608;29;20235;-68
2023/03/21 10:18:40;;;;;;;2.07;1.83;;;39.80;70.00;;;;;;1700689;29;20439;-68
2023/03/21 10:19:31;;;;;;;2.20;2.00;;;39.90;69.40;;;;;;1700593;29;20447;-68
2023/03/21 10:20:25;;;;;;;2.03;1.60;;;39.80;69.10;;;;;;1700543;29;20987;-68
2023/03/21 10:21:20;;;;;;;1.57;1.47;;;39.70;68.70;;;;;;1700654;29;20458;-68
2023/03/21 10:22:12;;;;;;;1.50;1.40;;;39.70;68.60;;;;;;1700604;29;20475;-68
2023/03/21 10:23:05;;;;;;;1.50;1.40;;;39.60;67.90;;;;;;1700626;29;20451;-68
2023/03/21 10:24:00;;;;;;;1.70;1.60;;;39.60;67.90;;;;;;1700561;29;20451;-68
2023/03/21 10:24:52;;;;;;;1.90;1.67;;;39.80;67.80;;;;;;1700628;29;20910;-67
2023/03/21 10:25:48;;;;;;;2.20;1.47;;;40.00;67.40;;;;;;1700389;29;20451;-68
2023/03/21 10:26:39;;;;;;;1.60;1.50;;;40.20;67.10;;;;;;1700634;29;20447;-68
2023/03/21 10:27:31;;;;;;;2.40;1.37;;;40.40;67.30;;;;;;1700600;29;20455;-69
2023/03/21 10:28:25;;;;;;;1.47;1.37;;;40.40;67.10;;;;;;1700185;29;20829;-68
2023/03/21 10:29:21;;;;;;;1.83;1.73;;;40.50;67.00;;;;;;1700544;29;20443;-68
2023/03/21 10:30:29;;;;;;;1.77;1.47;;;40.30;66.40;;;;;;1700492;29;20446;-68
2023/03/21 10:31:24;;;;;;;1.83;1.50;;;40.20;66.40;;;;;;1700604;29;20526;-69
2023/03/21 10:32:16;;;;;;;1.87;1.77;;;39.90;66.60;;;;;;1700619;29;20506;-67
2023/03/21 10:33:12;;;;;;;2.13;1.50;;;39.70;66.60;;;;;;1700558;29;20477;-69
2023/03/21 10:34:11;;;;;;;3.30;1.73;;;39.30;66.50;;;;;;1700668;29;20462;-68
2023/03/21 10:35:03;;;;;;;2.13;1.90;;;38.80;66.90;;;;;;1700594;29;20868;-69